Time;durP1;ratioP1;P1;durP2;ratioP2;P2;SDS_P1;SDS_P2;PMS_P1;PMS_P2;Temp;Humidity;BMP_temperature;BMP_pressure;BME280_temperature;BME280_humidity;BME280_pressure;Samples;Min_cycle;Max_cycle;Signal;HPM_P1;HPM_P2
2022/04/05 00:00:38;;;;;;;;;;;;;;;;;;5077383;28;19912;-90
2022/04/05 00:03:03;;;;;;;;;;;;;;;;;;5077304;28;19908;-90
2022/04/05 00:05:29;;;;;;;;;;;;;;;;;;5077403;28;19919;-90
2022/04/05 00:07:54;;;;;;;;;;;;;;;;;;5077311;28;19934;-90
2022/04/05 00:10:19;;;;;;;;;;;;;;;;;;5077050;28;19912;-90
2022/04/05 00:12:44;;;;;;;;;;;;;;;;;;5094948;28;19908;-90
2022/04/05 00:15:09;;;;;;;;;;;;;;;;;;5095716;28;20003;-89
2022/04/05 00:17:34;;;;;;;;;;;;;;;;;;5076700;28;19953;-90
2022/04/05 00:20:00;;;;;;;;;;;;;;;;;;5076762;28;20497;-90
2022/04/05 00:22:25;;;;;;;;;;;;;;;;;;5076108;28;20410;-89
2022/04/05 00:24:50;;;;;;;;;;;;;;;;;;5076762;28;19909;-90
2022/04/05 00:27:15;;;;;;;;;;;;;;;;;;5077171;28;19908;-90
2022/04/05 00:29:40;;;;;;;;;;;;;;;;;;5094765;28;20018;-90
2022/04/05 00:32:05;;;;;;;;;;;;;;;;;;5076271;28;19908;-90
2022/04/05 00:34:31;;;;;;;;;;;;;;;;;;5094528;28;19957;-89
2022/04/05 00:36:56;;;;;;;;;;;;;;;;;;5077082;28;20049;-89
2022/04/05 00:39:21;;;;;;;;;;;;;;;;;;5076729;28;19994;-90
2022/04/05 00:41:47;;;;;;;;;;;;;;;;;;5076531;28;20272;-90
2022/04/05 00:44:12;;;;;;;;;;;;;;;;;;5094720;28;19955;-90
2022/04/05 00:46:37;;;;;;;;;;;;;;;;;;5076650;28;20003;-90
2022/04/05 00:49:02;;;;;;;;;;;;;;;;;;5076136;28;20019;-90
2022/04/05 00:51:27;;;;;;;;;;;;;;;;;;5076393;28;19918;-91
2022/04/05 00:53:52;;;;;;;;;;;;;;;;;;5094725;28;20316;-90
2022/04/05 00:56:17;;;;;;;;;;;;;;;;;;5094282;28;19961;-90
2022/04/05 00:58:42;;;;;;;;;;;;;;;;;;5075738;28;19912;-90
2022/04/05 01:01:07;;;;;;;;;;;;;;;;;;5075898;28;20421;-90
2022/04/05 01:03:34;;;;;;;;;;;;;;;;;;5094189;28;20396;-90
2022/04/05 01:05:59;;;;;;;;;;;;;;;;;;5076386;28;19967;-90
2022/04/05 01:08:24;;;;;;;;;;;;;;;;;;5076285;28;19952;-90
2022/04/05 01:10:50;;;;;;;;;;;;;;;;;;5094371;28;19934;-90
2022/04/05 01:13:15;;;;;;;;;;;;;;;;;;5075491;28;19986;-90
2022/04/05 01:15:40;;;;;;;;;;;;;;;;;;5094123;28;20396;-89
2022/04/05 01:18:05;;;;;;;;;;;;;;;;;;5076123;28;19912;-90
2022/04/05 01:20:32;;;;;;;;;;;;;;;;;;5093902;28;19912;-91
2022/04/05 01:22:57;;;;;;;;;;;;;;;;;;5075363;28;19908;-90
2022/04/05 01:25:22;;;;;;;;;;;;;;;;;;5094001;28;19908;-90
2022/04/05 01:27:47;;;;;;;;;;;;;;;;;;5075961;28;20348;-90
2022/04/05 01:30:13;;;;;;;;;;;;;;;;;;5075969;28;19915;-90
2022/04/05 01:32:38;;;;;;;;;;;;;;;;;;5065194;28;20314;-90
2022/04/05 01:35:03;;;;;;;;;;;;;;;;;;5055026;28;19915;-90
2022/04/05 01:37:28;;;;;;;;;;;;;;;;;;5055107;28;19966;-89
2022/04/05 01:39:53;;;;;;;;;;;;;;;;;;5055153;28;19955;-90
2022/04/05 01:42:18;;;;;;;;;;;;;;;;;;5072706;28;19915;-90
2022/04/05 01:44:44;;;;;;;;;;;;;;;;;;5055270;28;19912;-90
2022/04/05 01:47:09;;;;;;;;;;;;;;;;;;5055616;28;19912;-90
2022/04/05 01:49:34;;;;;;;;;;;;;;;;;;5073167;28;19912;-90
2022/04/05 01:51:59;;;;;;;;;;;;;;;;;;5055039;28;19909;-90
2022/04/05 01:54:24;;;;;;;;;;;;;;;;;;5055227;28;19909;-90
2022/04/05 01:56:49;;;;;;;;;;;;;;;;;;5055214;28;19905;-89
2022/04/05 01:59:14;;;;;;;;;;;;;;;;;;5055209;28;19908;-89
2022/04/05 02:01:40;;;;;;;;;;;;;;;;;;5072675;28;19904;-89
2022/04/05 02:04:05;;;;;;;;;;;;;;;;;;5073042;28;19909;-89
2022/04/05 02:06:30;;;;;;;;;;;;;;;;;;5072561;28;19912;-89
2022/04/05 02:08:55;;;;;;;;;;;;;;;;;;5054873;28;19999;-90
2022/04/05 02:11:20;;;;;;;;;;;;;;;;;;5054583;28;19917;-89
2022/04/05 02:13:45;;;;;;;;;;;;;;;;;;5054761;28;19935;-90
2022/04/05 02:16:10;;;;;;;;;;;;;;;;;;5054705;28;20352;-89
2022/04/05 02:18:36;;;;;;;;;;;;;;;;;;5072766;28;19915;-90
2022/04/05 02:21:01;;;;;;;;;;;;;;;;;;5072337;28;19909;-89
2022/04/05 02:23:26;;;;;;;;;;;;;;;;;;5072756;28;19908;-90
2022/04/05 02:25:51;;;;;;;;;;;;;;;;;;5072507;28;19909;-90
2022/04/05 02:28:16;;;;;;;;;;;;;;;;;;5072599;28;19908;-89
2022/04/05 02:30:41;;;;;;;;;;;;;;;;;;5054256;28;20375;-90
2022/04/05 02:33:06;;;;;;;;;;;;;;;;;;5054246;28;19915;-90
2022/04/05 02:35:31;;;;;;;;;;;;;;;;;;5054586;28;19916;-89
2022/04/05 02:37:56;;;;;;;;;;;;;;;;;;5054856;28;19912;-90
2022/04/05 02:40:22;;;;;;;;;;;;;;;;;;5054399;28;19913;-89
2022/04/05 02:42:47;;;;;;;;;;;;;;;;;;5071922;28;19909;-89
2022/04/05 02:45:12;;;;;;;;;;;;;;;;;;5071953;28;19909;-89
2022/04/05 02:47:37;;;;;;;;;;;;;;;;;;5057528;28;20017;-89
2022/04/05 02:50:02;;;;;;;;;;;;;;;;;;5058406;28;19999;-89
2022/04/05 02:52:29;;;;;;;;;;;;;;;;;;5058155;28;20427;-89
2022/04/05 02:54:54;;;;;;;;;;;;;;;;;;5058641;28;19909;-89
2022/04/05 02:57:19;;;;;;;;;;;;;;;;;;5058256;28;19916;-89
2022/04/05 02:59:44;;;;;;;;;;;;;;;;;;5075836;28;19916;-89
2022/04/05 03:02:09;;;;;;;;;;;;;;;;;;5075505;28;19909;-90
2022/04/05 03:04:36;;;;;;;;;;;;;;;;;;5057859;28;19912;-90
2022/04/05 03:07:01;;;;;;;;;;;;;;;;;;5058694;28;19944;-89
2022/04/05 03:09:26;;;;;;;;;;;;;;;;;;5058197;28;19967;-90
2022/04/05 03:11:51;;;;;;;;;;;;;;;;;;5075774;28;20347;-90
2022/04/05 03:14:16;;;;;;;;;;;;;;;;;;5058200;28;20003;-90
2022/04/05 03:16:41;;;;;;;;;;;;;;;;;;5075838;28;19908;-90
2022/04/05 03:19:08;;;;;;;;;;;;;;;;;;5058423;28;19908;-90
2022/04/05 03:21:33;;;;;;;;;;;;;;;;;;5057382;28;20541;-89
2022/04/05 03:23:58;;;;;;;;;;;;;;;;;;5075746;28;20358;-90
2022/04/05 03:26:23;;;;;;;;;;;;;;;;;;5075463;28;19908;-90
2022/04/05 03:28:48;;;;;;;;;;;;;;;;;;5075465;28;19909;-90
2022/04/05 03:31:13;;;;;;;;;;;;;;;;;;5075073;28;19912;-89
2022/04/05 03:33:38;;;;;;;;;;;;;;;;;;5057887;28;19969;-89
2022/04/05 03:36:04;;;;;;;;;;;;;;;;;;5057944;28;19916;-90
2022/04/05 03:38:30;;;;;;;;;;;;;;;;;;5058075;28;20026;-90
2022/04/05 03:40:55;;;;;;;;;;;;;;;;;;5074714;28;19959;-90
2022/04/05 03:43:21;;;;;;;;;;;;;;;;;;5075257;28;20302;-89
2022/04/05 03:45:47;;;;;;;;;;;;;;;;;;5075491;28;20375;-90
2022/04/05 03:48:12;;;;;;;;;;;;;;;;;;5057753;28;20011;-90
2022/04/05 03:50:37;;;;;;;;;;;;;;;;;;5057573;28;19939;-90
2022/04/05 03:53:02;;;;;;;;;;;;;;;;;;5074947;28;19909;-90
2022/04/05 03:55:27;;;;;;;;;;;;;;;;;;5057582;28;19920;-90
2022/04/05 03:57:53;;;;;;;;;;;;;;;;;;5057006;28;20368;-90
2022/04/05 04:00:18;;;;;;;;;;;;;;;;;;5057449;28;19920;-90
2022/04/05 04:02:43;;;;;;;;;;;;;;;;;;5057037;28;20112;-90
2022/04/05 04:05:08;;;;;;;;;;;;;;;;;;5075501;28;19913;-90
2022/04/05 04:07:33;;;;;;;;;;;;;;;;;;5057383;28;19912;-89
2022/04/05 04:09:58;;;;;;;;;;;;;;;;;;5057257;28;20363;-90
2022/04/05 04:12:23;;;;;;;;;;;;;;;;;;5056934;28;19909;-89
2022/04/05 04:14:48;;;;;;;;;;;;;;;;;;5057289;28;20023;-90
2022/04/05 04:17:14;;;;;;;;;;;;;;;;;;5057247;28;19908;-90
2022/04/05 04:19:39;;;;;;;;;;;;;;;;;;5057268;28;19908;-90
2022/04/05 04:22:04;;;;;;;;;;;;;;;;;;5074602;28;19958;-90
2022/04/05 04:24:29;;;;;;;;;;;;;;;;;;5057070;28;20031;-90
2022/04/05 04:26:54;;;;;;;;;;;;;;;;;;5056926;28;19916;-90
2022/04/05 04:29:19;;;;;;;;;;;;;;;;;;5057011;28;19919;-90
2022/04/05 04:31:45;;;;;;;;;;;;;;;;;;5074032;28;19979;-89
2022/04/05 04:34:10;;;;;;;;;;;;;;;;;;5056707;28;19908;-90
2022/04/05 04:36:35;;;;;;;;;;;;;;;;;;5074983;28;19909;-90
2022/04/05 04:39:00;;;;;;;;;;;;;;;;;;5056892;28;19912;-90
2022/04/05 04:41:25;;;;;;;;;;;;;;;;;;5073816;28;19909;-90
2022/04/05 04:43:50;;;;;;;;;;;;;;;;;;5056349;28;19908;-89
2022/04/05 04:46:15;;;;;;;;;;;;;;;;;;5056651;28;19909;-90
2022/04/05 04:48:40;;;;;;;;;;;;;;;;;;5074495;28;19916;-90
2022/04/05 04:51:05;;;;;;;;;;;;;;;;;;5056427;28;20387;-90
2022/04/05 04:53:30;;;;;;;;;;;;;;;;;;5056249;28;19912;-89
2022/04/05 04:55:56;;;;;;;;;;;;;;;;;;5056333;28;19919;-90
2022/04/05 04:58:21;;;;;;;;;;;;;;;;;;5056153;28;20288;-89
2022/04/05 05:00:46;;;;;;;;;;;;;;;;;;5055868;28;19921;-89
2022/04/05 05:03:12;;;;;;;;;;;;;;;;;;5074295;28;19908;-89
2022/04/05 05:05:37;;;;;;;;;;;;;;;;;;5056020;28;20465;-90
2022/04/05 05:08:02;;;;;;;;;;;;;;;;;;5056114;28;19952;-90
2022/04/05 05:10:28;;;;;;;;;;;;;;;;;;5055575;28;20391;-90
2022/04/05 05:12:54;;;;;;;;;;;;;;;;;;5073538;28;19908;-90
2022/04/05 05:15:19;;;;;;;;;;;;;;;;;;5055850;28;19915;-90
2022/04/05 05:17:44;;;;;;;;;;;;;;;;;;5055895;28;19962;-90
2022/04/05 05:20:09;;;;;;;;;;;;;;;;;;5055884;28;19957;-89
2022/04/05 05:22:34;;;;;;;;;;;;;;;;;;5073575;28;20236;-90
2022/04/05 05:24:59;;;;;;;;;;;;;;;;;;5055894;28;19912;-89
2022/04/05 05:27:27;;;;;;;;;;;;;;;;;;5055432;28;19917;-90
2022/04/05 05:29:53;;;;;;;;;;;;;;;;;;5055815;28;19934;-90
2022/04/05 05:32:18;;;;;;;;;;;;;;;;;;5055193;28;20412;-89
2022/04/05 05:34:43;;;;;;;;;;;;;;;;;;5055746;28;20019;-89
2022/04/05 05:37:09;;;;;;;;;;;;;;;;;;5073602;28;19958;-89
2022/04/05 05:39:34;;;;;;;;;;;;;;;;;;5055543;28;20310;-89
2022/04/05 05:41:59;;;;;;;;;;;;;;;;;;5054998;28;20280;-89
2022/04/05 05:44:24;;;;;;;;;;;;;;;;;;5055295;28;19909;-90
2022/04/05 05:46:49;;;;;;;;;;;;;;;;;;5055172;28;19920;-89
2022/04/05 05:49:15;;;;;;;;;;;;;;;;;;5072677;28;19916;-90
2022/04/05 05:51:40;;;;;;;;;;;;;;;;;;5072513;28;19912;-89
2022/04/05 05:54:05;;;;;;;;;;;;;;;;;;5073010;28;19912;-90
2022/04/05 05:56:30;;;;;;;;;;;;;;;;;;5055078;28;19913;-90
2022/04/05 05:58:55;;;;;;;;;;;;;;;;;;5055021;28;19908;-90
2022/04/05 06:01:21;;;;;;;;;;;;;;;;;;5072119;28;19908;-89
2022/04/05 06:03:46;;;;;;;;;;;;;;;;;;5054650;28;19908;-90
2022/04/05 06:06:11;;;;;;;;;;;;;;;;;;5072990;28;19915;-90
2022/04/05 06:08:36;;;;;;;;;;;;;;;;;;5055016;28;19914;-90
2022/04/05 06:11:01;;;;;;;;;;;;;;;;;;5072462;28;19912;-90
2022/04/05 06:13:26;;;;;;;;;;;;;;;;;;5054741;28;19999;-90
2022/04/05 06:15:52;;;;;;;;;;;;;;;;;;5072511;28;19908;-90
2022/04/05 06:18:17;;;;;;;;;;;;;;;;;;5054882;28;19913;-89
2022/04/05 06:20:42;;;;;;;;;;;;;;;;;;5072152;28;19965;-90
2022/04/05 06:23:07;;;;;;;;;;;;;;;;;;5054652;28;20313;-89
2022/04/05 06:25:32;;;;;;;;;;;;;;;;;;5054714;28;19915;-89
2022/04/05 06:27:58;;;;;;;;;;;;;;;;;;5054370;28;19939;-89
2022/04/05 06:30:23;;;;;;;;;;;;;;;;;;5054124;28;19913;-89
2022/04/05 06:32:48;;;;;;;;;;;;;;;;;;5086308;28;20127;-89
2022/04/05 06:35:13;;;;;;;;;;;;;;;;;;5076599;28;20363;-89
2022/04/05 06:37:38;;;;;;;;;;;;;;;;;;5076896;28;20264;-88
2022/04/05 06:40:03;;;;;;;;;;;;;;;;;;5080856;28;19912;-89
2022/04/05 06:42:29;;;;;;;;;;;;;;;;;;5074368;28;19942;-88
2022/04/05 06:44:54;;;;;;;;;;;;;;;;;;5092161;28;19908;-89
2022/04/05 06:47:19;;;;;;;;;;;;;;;;;;5113659;28;19951;-89
2022/04/05 06:49:44;;;;;;;;;;;;;;;;;;5093552;28;19923;-89
2022/04/05 06:52:09;;;;;;;;;;;;;;;;;;5113963;28;19943;-89
2022/04/05 06:54:34;;;;;;;;;;;;;;;;;;5099840;28;20001;-88
2022/04/05 06:56:59;;;;;;;;;;;;;;;;;;5074932;28;19917;-89
2022/04/05 06:59:25;;;;;;;;;;;;;;;;;;5074617;28;20045;-88
2022/04/05 07:01:50;;;;;;;;;;;;;;;;;;5083589;28;19946;-89
2022/04/05 07:04:15;;;;;;;;;;;;;;;;;;5088382;28;19916;-90
2022/04/05 07:06:40;;;;;;;;;;;;;;;;;;5075773;28;19912;-89
2022/04/05 07:09:07;;;;;;;;;;;;;;;;;;5064441;28;19912;-88
2022/04/05 07:11:32;;;;;;;;;;;;;;;;;;5083843;28;19918;-89
2022/04/05 07:13:57;;;;;;;;;;;;;;;;;;5079411;28;20434;-88
2022/04/05 07:16:22;;;;;;;;;;;;;;;;;;5078596;28;19916;-88
2022/04/05 07:18:47;;;;;;;;;;;;;;;;;;5082770;28;19912;-88
2022/04/05 07:21:13;;;;;;;;;;;;;;;;;;5077159;28;19916;-90
2022/04/05 07:23:38;;;;;;;;;;;;;;;;;;5086221;28;19919;-87
2022/04/05 07:26:03;;;;;;;;;;;;;;;;;;5082102;28;20356;-86
2022/04/05 07:28:28;;;;;;;;;;;;;;;;;;5102903;28;19920;-87
2022/04/05 07:30:53;;;;;;;;;;;;;;;;;;5101391;28;19916;-89
2022/04/05 07:33:18;;;;;;;;;;;;;;;;;;5085095;28;19916;-88
2022/04/05 07:35:43;;;;;;;;;;;;;;;;;;5085106;28;20359;-87
2022/04/05 07:38:08;;;;;;;;;;;;;;;;;;5100550;28;19916;-89
2022/04/05 07:40:49;;;;;;;;;;;;;;;;;;5068643;28;19962;-88
2022/04/05 07:43:14;;;;;;;;;;;;;;;;;;5092456;28;19912;-88
2022/04/05 07:45:40;;;;;;;;;;;;;;;;;;5078271;28;19915;-87
2022/04/05 07:48:05;;;;;;;;;;;;;;;;;;5074230;28;20004;-88
2022/04/05 07:50:30;;;;;;;;;;;;;;;;;;5083586;28;19938;-89
2022/04/05 07:52:55;;;;;;;;;;;;;;;;;;5086295;28;20287;-89
2022/04/05 07:55:20;;;;;;;;;;;;;;;;;;5083674;28;19919;-90
2022/04/05 07:57:46;;;;;;;;;;;;;;;;;;5086763;28;20015;-89
2022/04/05 08:00:11;;;;;;;;;;;;;;;;;;5097335;28;20010;-91
2022/04/05 08:02:37;;;;;;;;;;;;;;;;;;5080678;28;20006;-86
2022/04/05 08:05:02;;;;;;;;;;;;;;;;;;5083536;28;19912;-87
2022/04/05 08:07:27;;;;;;;;;;;;;;;;;;5081036;28;19915;-86
2022/04/05 08:09:52;;;;;;;;;;;;;;;;;;5091136;28;19920;-86
2022/04/05 08:12:17;;;;;;;;;;;;;;;;;;5110591;28;19911;-86
2022/04/05 08:14:42;;;;;;;;;;;;;;;;;;5105760;28;19916;-87
2022/04/05 08:17:07;;;;;;;;;;;;;;;;;;5078554;28;19912;-84
2022/04/05 08:19:33;;;;;;;;;;;;;;;;;;5094507;28;19920;-88
2022/04/05 08:21:58;;;;;;;;;;;;;;;;;;5096577;28;19923;-87
2022/04/05 08:24:23;;;;;;;;;;;;;;;;;;5077869;28;19912;-89
2022/04/05 08:26:48;;;;;;;;;;;;;;;;;;5070815;28;19912;-88
2022/04/05 08:29:13;;;;;;;;;;;;;;;;;;5068799;28;19919;-85
2022/04/05 08:31:38;;;;;;;;;;;;;;;;;;5087711;28;20379;-87
2022/04/05 08:34:03;;;;;;;;;;;;;;;;;;5080880;28;19920;-90
2022/04/05 08:36:28;;;;;;;;;;;;;;;;;;5095131;28;20311;-90
2022/04/05 08:38:54;;;;;;;;;;;;;;;;;;5079504;28;20371;-86
2022/04/05 08:41:19;;;;;;;;;;;;;;;;;;5083541;28;19919;-86
2022/04/05 08:43:45;;;;;;;;;;;;;;;;;;5088827;28;19912;-81
2022/04/05 08:46:10;;;;;;;;;;;;;;;;;;5086719;28;19920;-80
2022/04/05 08:48:35;;;;;;;;;;;;;;;;;;5082478;28;20367;-82
2022/04/05 08:51:01;;;;;;;;;;;;;;;;;;5083449;28;20363;-81
2022/04/05 08:53:29;;;;;;;;;;;;;;;;;;5081534;28;19912;-82
2022/04/05 08:55:54;;;;;;;;;;;;;;;;;;5080258;28;19923;-82
2022/04/05 08:58:20;;;;;;;;;;;;;;;;;;5075911;28;19912;-82
2022/04/05 09:00:46;;;;;;;;;;;;;;;;;;5072023;28;19998;-81
2022/04/05 09:03:11;;;;;;;;;;;;;;;;;;5076240;28;20002;-81
2022/04/05 09:05:36;;;;;;;;;;;;;;;;;;5077472;28;19923;-83
2022/04/05 09:08:01;;;;;;;;;;;;;;;;;;5076447;28;20344;-82
2022/04/05 09:10:26;;;;;;;;;;;;;;;;;;5076965;28;19912;-82
2022/04/05 09:12:51;;;;;;;;;;;;;;;;;;5081630;28;19938;-82
2022/04/05 09:15:16;;;;;;;;;;;;;;;;;;5078561;28;19957;-81
2022/04/05 09:17:42;;;;;;;;;;;;;;;;;;5082482;28;19961;-81
2022/04/05 09:20:07;;;;;;;;;;;;;;;;;;5081176;28;20299;-81
2022/04/05 09:22:35;;;;;;;;;;;;;;;;;;5086723;28;19912;-81
2022/04/05 09:25:00;;;;;;;;;;;;;;;;;;5076154;28;19912;-81
2022/04/05 09:27:27;;;;;;;;;;;;;;;;;;5082404;28;19919;-81
2022/04/05 09:29:52;;;;;;;;;;;;;;;;;;5079327;28;19923;-81
2022/04/05 09:32:17;;;;;;;;;;;;;;;;;;5079822;28;19920;-82
2022/04/05 09:34:42;;;;;;;;;;;;;;;;;;5088359;28;20398;-82
2022/04/05 09:37:09;;;;;;;;;;;;;;;;;;5077750;28;19921;-83
2022/04/05 09:39:34;;;;;;;;;;;;;;;;;;5085507;28;20386;-81
2022/04/05 09:42:00;;;;;;;;;;;;;;;;;;5084417;28;19912;-82
2022/04/05 09:44:26;;;;;;;;;;;;;;;;;;5075162;28;19908;-82
2022/04/05 09:46:52;;;;;;;;;;;;;;;;;;5077698;28;19916;-81
2022/04/05 09:49:17;;;;;;;;;;;;;;;;;;5076195;28;20062;-82
2022/04/05 09:51:42;;;;;;;;;;;;;;;;;;5075713;28;19998;-81
2022/04/05 09:54:09;;;;;;;;;;;;;;;;;;5073258;28;20603;-82
2022/04/05 09:56:34;;;;;;;;;;;;;;;;;;5078918;28;20009;-82
2022/04/05 09:59:03;;;;;;;;;;;;;;;;;;5075772;28;20008;-82
2022/04/05 10:01:28;;;;;;;;;;;;;;;;;;5075866;28;19920;-82
2022/04/05 10:03:53;;;;;;;;;;;;;;;;;;5082307;28;19919;-82
2022/04/05 10:06:18;;;;;;;;;;;;;;;;;;5076287;28;20399;-82
2022/04/05 10:08:43;;;;;;;;;;;;;;;;;;5076146;28;19963;-82
2022/04/05 10:11:08;;;;;;;;;;;;;;;;;;5075819;28;20014;-82
2022/04/05 10:13:33;;;;;;;;;;;;;;;;;;5084156;28;19995;-82
2022/04/05 10:16:02;;;;;;;;;;;;;;;;;;5091370;28;19912;-83
2022/04/05 10:18:28;;;;;;;;;;;;;;;;;;5093846;28;19912;-83
2022/04/05 10:20:54;;;;;;;;;;;;;;;;;;5075631;28;19962;-85
2022/04/05 10:23:20;;;;;;;;;;;;;;;;;;5093938;28;20363;-86
2022/04/05 10:25:45;;;;;;;;;;;;;;;;;;5076410;28;19912;-88
2022/04/05 10:28:11;;;;;;;;;;;;;;;;;;5075096;28;19916;-87
2022/04/05 10:30:36;;;;;;;;;;;;;;;;;;5093581;28;20377;-86
2022/04/05 10:33:01;;;;;;;;;;;;;;;;;;5075132;28;20012;-86
2022/04/05 10:35:26;;;;;;;;;;;;;;;;;;5067789;28;19945;-85
2022/04/05 10:37:54;;;;;;;;;;;;;;;;;;5075118;28;20006;-86
2022/04/05 10:40:20;;;;;;;;;;;;;;;;;;5109354;28;19942;-86
2022/04/05 10:42:46;;;;;;;;;;;;;;;;;;5100111;28;19996;-87
2022/04/05 10:45:11;;;;;;;;;;;;;;;;;;5075399;28;19966;-88
2022/04/05 10:47:36;;;;;;;;;;;;;;;;;;5069240;28;20007;-88
2022/04/05 10:50:01;;;;;;;;;;;;;;;;;;5067391;28;19920;-87
2022/04/05 10:52:27;;;;;;;;;;;;;;;;;;5074175;28;19916;-89
2022/04/05 10:54:52;;;;;;;;;;;;;;;;;;5077691;28;19924;-90
2022/04/05 10:57:18;;;;;;;;;;;;;;;;;;5071481;28;19965;-87
2022/04/05 10:59:43;;;;;;;;;;;;;;;;;;5073494;28;20394;-88
2022/04/05 11:02:08;;;;;;;;;;;;;;;;;;5076516;28;19972;-87
2022/04/05 11:04:34;;;;;;;;;;;;;;;;;;5076445;28;19912;-87
2022/04/05 11:07:03;;;;;;;;;;;;;;;;;;5075316;28;19934;-88
2022/04/05 11:09:28;;;;;;;;;;;;;;;;;;5081355;28;19958;-88
2022/04/05 11:11:53;;;;;;;;;;;;;;;;;;5101305;28;19947;-86
2022/04/05 11:14:18;;;;;;;;;;;;;;;;;;5093189;28;19963;-87
2022/04/05 11:16:43;;;;;;;;;;;;;;;;;;5091346;28;20332;-87
2022/04/05 11:19:08;;;;;;;;;;;;;;;;;;5079177;28;20434;-90
2022/04/05 11:21:33;;;;;;;;;;;;;;;;;;5078975;28;20011;-88
2022/04/05 11:23:59;;;;;;;;;;;;;;;;;;5095197;28;20006;-87
2022/04/05 11:26:24;;;;;;;;;;;;;;;;;;5090085;28;19995;-87
2022/04/05 11:28:49;;;;;;;;;;;;;;;;;;5074056;28;19978;-88
2022/04/05 11:31:14;;;;;;;;;;;;;;;;;;5061734;28;19963;-88
2022/04/05 11:33:41;;;;;;;;;;;;;;;;;;5085848;28;19919;-88
2022/04/05 11:36:07;;;;;;;;;;;;;;;;;;5079492;28;20387;-89
2022/04/05 11:38:32;;;;;;;;;;;;;;;;;;5107055;28;19919;-89
2022/04/05 11:40:58;;;;;;;;;;;;;;;;;;5100230;28;19994;-87
2022/04/05 11:43:24;;;;;;;;;;;;;;;;;;5109024;28;20360;-88
2022/04/05 11:45:49;;;;;;;;;;;;;;;;;;5084622;28;19952;-89
2022/04/05 11:48:15;;;;;;;;;;;;;;;;;;5079762;28;20334;-89
2022/04/05 11:50:40;;;;;;;;;;;;;;;;;;5077958;28;19924;-87
2022/04/05 11:53:05;;;;;;;;;;;;;;;;;;5078203;28;19908;-89
2022/04/05 11:58:14;;;;;;;;;;;;;;;;;;5106203;28;20007;-87
2022/04/05 12:00:39;;;;;;;;;;;;;;;;;;5077829;28;19951;-88
2022/04/05 12:03:05;;;;;;;;;;;;;;;;;;5097127;28;20312;-88
2022/04/05 12:05:31;;;;;;;;;;;;;;;;;;5071602;28;19954;-86
2022/04/05 12:07:56;;;;;;;;;;;;;;;;;;5061985;28;19947;-86
2022/04/05 12:10:22;;;;;;;;;;;;;;;;;;5089131;28;20006;-86
2022/04/05 12:12:47;;;;;;;;;;;;;;;;;;5079322;28;20003;-87
2022/04/05 12:15:12;;;;;;;;;;;;;;;;;;5109719;28;19916;-87
2022/04/05 12:17:37;;;;;;;;;;;;;;;;;;5062594;28;19909;-87
2022/04/05 12:20:02;;;;;;;;;;;;;;;;;;5095966;28;19912;-88
2022/04/05 12:22:27;;;;;;;;;;;;;;;;;;5087039;28;19969;-88
2022/04/05 12:24:54;;;;;;;;;;;;;;;;;;5094358;28;19973;-86
2022/04/05 12:27:20;;;;;;;;;;;;;;;;;;5077381;28;19908;-87
2022/04/05 12:29:45;;;;;;;;;;;;;;;;;;5077488;28;19963;-86
2022/04/05 12:32:10;;;;;;;;;;;;;;;;;;5085409;28;19920;-86
2022/04/05 12:34:36;;;;;;;;;;;;;;;;;;5068523;28;19915;-87
2022/04/05 12:37:02;;;;;;;;;;;;;;;;;;5080026;28;19923;-86
2022/04/05 12:39:27;;;;;;;;;;;;;;;;;;5071421;28;19919;-86
2022/04/05 12:41:53;;;;;;;;;;;;;;;;;;5085057;28;19990;-87
2022/04/05 12:44:18;;;;;;;;;;;;;;;;;;5086777;28;19920;-87
2022/04/05 12:46:43;;;;;;;;;;;;;;;;;;5076974;28;19919;-86
2022/04/05 12:49:09;;;;;;;;;;;;;;;;;;5075661;28;19916;-87
2022/04/05 12:51:34;;;;;;;;;;;;;;;;;;5085073;28;19982;-88
2022/04/05 12:53:59;;;;;;;;;;;;;;;;;;5108696;28;20336;-87
2022/04/05 12:56:24;;;;;;;;;;;;;;;;;;5076743;28;19908;-88
2022/04/05 12:58:52;;;;;;;;;;;;;;;;;;5079006;28;19915;-88
2022/04/05 13:01:17;;;;;;;;;;;;;;;;;;5085106;28;19931;-87
2022/04/05 13:03:42;;;;;;;;;;;;;;;;;;5076978;28;20270;-88
2022/04/05 13:06:20;;;;;;;;;;;;;;;;;;5094884;28;20359;-88
2022/04/05 13:08:45;;;;;;;;;;;;;;;;;;5084899;28;19911;-88
2022/04/05 13:11:10;;;;;;;;;;;;;;;;;;5103256;28;19916;-87
2022/04/05 13:13:35;;;;;;;;;;;;;;;;;;5079905;28;19918;-87
2022/04/05 13:16:00;;;;;;;;;;;;;;;;;;5083476;28;20002;-88
2022/04/05 13:18:25;;;;;;;;;;;;;;;;;;5076666;28;20028;-86
2022/04/05 13:20:50;;;;;;;;;;;;;;;;;;5088143;28;19974;-88
2022/04/05 13:23:15;;;;;;;;;;;;;;;;;;5081361;28;20423;-88
2022/04/05 13:25:41;;;;;;;;;;;;;;;;;;5088733;28;19908;-88
2022/04/05 13:28:06;;;;;;;;;;;;;;;;;;5092931;28;19918;-88
2022/04/05 13:30:31;;;;;;;;;;;;;;;;;;5075617;28;20240;-87
2022/04/05 13:32:56;;;;;;;;;;;;;;;;;;5071682;28;19915;-88
2022/04/05 13:35:21;;;;;;;;;;;;;;;;;;5106680;28;19912;-89
2022/04/05 13:37:46;;;;;;;;;;;;;;;;;;5076601;28;19913;-90
2022/04/05 13:40:11;;;;;;;;;;;;;;;;;;5075718;28;19942;-91
2022/04/05 13:42:36;;;;;;;;;;;;;;;;;;5074673;28;20283;-88
2022/04/05 13:45:02;;;;;;;;;;;;;;;;;;5074147;28;19919;-90
2022/04/05 13:47:27;;;;;;;;;;;;;;;;;;5074962;28;19920;-87
2022/04/05 13:49:52;;;;;;;;;;;;;;;;;;5067051;28;19973;-88
2022/04/05 13:52:17;;;;;;;;;;;;;;;;;;5110907;28;19916;-88
2022/04/05 13:54:42;;;;;;;;;;;;;;;;;;5097709;28;20355;-87
2022/04/05 13:57:07;;;;;;;;;;;;;;;;;;5085460;28;19948;-87
2022/04/05 13:59:32;;;;;;;;;;;;;;;;;;5088645;28;20035;-90
2022/04/05 14:01:57;;;;;;;;;;;;;;;;;;5098792;28;19943;-87
2022/04/05 14:04:23;;;;;;;;;;;;;;;;;;5099796;28;19920;-88
2022/04/05 14:06:48;;;;;;;;;;;;;;;;;;5086377;28;19920;-88
2022/04/05 14:09:13;;;;;;;;;;;;;;;;;;5091778;28;19934;-88
2022/04/05 14:11:39;;;;;;;;;;;;;;;;;;5081836;28;19920;-87
2022/04/05 14:14:04;;;;;;;;;;;;;;;;;;5094723;28;19916;-88
2022/04/05 14:16:29;;;;;;;;;;;;;;;;;;5101658;28;19912;-86
2022/04/05 14:18:55;;;;;;;;;;;;;;;;;;5073542;28;19932;-87
2022/04/05 14:21:20;;;;;;;;;;;;;;;;;;5103544;28;20362;-89
2022/04/05 14:23:45;;;;;;;;;;;;;;;;;;5077985;28;19912;-87
2022/04/05 14:26:10;;;;;;;;;;;;;;;;;;5073308;28;19908;-88
2022/04/05 14:28:35;;;;;;;;;;;;;;;;;;5073591;28;19919;-87
2022/04/05 14:31:00;;;;;;;;;;;;;;;;;;5082665;28;19919;-87
2022/04/05 14:33:25;;;;;;;;;;;;;;;;;;5084186;28;19920;-88
2022/04/05 14:35:51;;;;;;;;;;;;;;;;;;5077195;28;19908;-89
2022/04/05 14:38:16;;;;;;;;;;;;;;;;;;5075298;28;19916;-87
2022/04/05 14:40:42;;;;;;;;;;;;;;;;;;5073909;28;19912;-89
2022/04/05 14:43:07;;;;;;;;;;;;;;;;;;5074590;28;20359;-89
2022/04/05 14:45:32;;;;;;;;;;;;;;;;;;5074267;28;19912;-88
2022/04/05 14:47:58;;;;;;;;;;;;;;;;;;5081112;28;19920;-91
2022/04/05 14:50:23;;;;;;;;;;;;;;;;;;5075358;28;19977;-89
2022/04/05 14:52:48;;;;;;;;;;;;;;;;;;5073541;28;20037;-86
2022/04/05 14:55:13;;;;;;;;;;;;;;;;;;5085748;28;20259;-89
2022/04/05 14:57:38;;;;;;;;;;;;;;;;;;5102311;28;19922;-89
2022/04/05 15:00:03;;;;;;;;;;;;;;;;;;5075006;28;20053;-88
2022/04/05 15:02:28;;;;;;;;;;;;;;;;;;5065657;28;20005;-85
2022/04/05 15:04:53;;;;;;;;;;;;;;;;;;5079481;28;19912;-88
2022/04/05 15:07:19;;;;;;;;;;;;;;;;;;5079516;28;20382;-87
2022/04/05 15:09:44;;;;;;;;;;;;;;;;;;5060466;28;19931;-88
2022/04/05 15:12:09;;;;;;;;;;;;;;;;;;5088958;28;19912;-82
2022/04/05 15:14:35;;;;;;;;;;;;;;;;;;5092420;28;20431;-85
2022/04/05 15:17:00;;;;;;;;;;;;;;;;;;5093374;28;20004;-82
2022/04/05 15:19:25;;;;;;;;;;;;;;;;;;5067325;28;20352;-84
2022/04/05 15:21:50;;;;;;;;;;;;;;;;;;5070212;28;19938;-85
2022/04/05 15:24:15;;;;;;;;;;;;;;;;;;5073589;28;19916;-83
2022/04/05 15:26:41;;;;;;;;;;;;;;;;;;5084818;28;20374;-84
2022/04/05 15:29:07;;;;;;;;;;;;;;;;;;5084185;28;20342;-81
2022/04/05 15:31:32;;;;;;;;;;;;;;;;;;5069267;28;19924;-80
2022/04/05 15:33:57;;;;;;;;;;;;;;;;;;5093525;28;19912;-80
2022/04/05 15:36:22;;;;;;;;;;;;;;;;;;5076675;28;19912;-80
2022/04/05 15:38:47;;;;;;;;;;;;;;;;;;5074102;28;19923;-79
2022/04/05 15:41:12;;;;;;;;;;;;;;;;;;5071776;28;19912;-80
2022/04/05 15:43:38;;;;;;;;;;;;;;;;;;5075339;28;19916;-79
2022/04/05 15:46:03;;;;;;;;;;;;;;;;;;5093581;28;19958;-79
2022/04/05 15:48:28;;;;;;;;;;;;;;;;;;5074981;28;20001;-79
2022/04/05 15:50:53;;;;;;;;;;;;;;;;;;5075229;28;19969;-80
2022/04/05 15:53:18;;;;;;;;;;;;;;;;;;5094402;28;19985;-79
2022/04/05 15:55:43;;;;;;;;;;;;;;;;;;5078791;28;20421;-79
2022/04/05 15:58:08;;;;;;;;;;;;;;;;;;5078686;28;19912;-79
2022/04/05 16:00:33;;;;;;;;;;;;;;;;;;5076653;28;19919;-79
2022/04/05 16:02:59;;;;;;;;;;;;;;;;;;5078668;28;19919;-80
2022/04/05 16:05:24;;;;;;;;;;;;;;;;;;5078498;28;19927;-79
2022/04/05 16:07:50;;;;;;;;;;;;;;;;;;5096286;28;19916;-80
2022/04/05 16:10:15;;;;;;;;;;;;;;;;;;5096518;28;19911;-80
2022/04/05 16:12:40;;;;;;;;;;;;;;;;;;5096607;28;20280;-80
2022/04/05 16:15:05;;;;;;;;;;;;;;;;;;5078167;28;19912;-80
2022/04/05 16:17:33;;;;;;;;;;;;;;;;;;5078403;28;19908;-80
2022/04/05 16:19:59;;;;;;;;;;;;;;;;;;5078304;28;19939;-80
2022/04/05 16:22:24;;;;;;;;;;;;;;;;;;5077889;28;19912;-80
2022/04/05 16:24:49;;;;;;;;;;;;;;;;;;5071458;28;20381;-80
2022/04/05 16:27:14;;;;;;;;;;;;;;;;;;5077951;28;20326;-80
2022/04/05 16:29:39;;;;;;;;;;;;;;;;;;5096193;28;19908;-80
2022/04/05 16:32:05;;;;;;;;;;;;;;;;;;5096297;28;19908;-80
2022/04/05 16:34:30;;;;;;;;;;;;;;;;;;5096266;28;20396;-80